Montgomery City, MO (63361)

4:01 PM CDT on September 23, 2014 (GMT -0500)
ALSAT Wireless | Change Station
CLOSE
Current Station
Personal Weather Station
Location: Montgomery City, MO
Elevation: 810 ft
Nearby Weather Stations

Elev 810 ft 38.99 °N, 91.55 °W | Updated 6 seconds ago

Partly Cloudy
Partly Cloudy
73.5 °F
Feels Like 77 °F
N
0.0
Wind Variable Wind from NW
Gusts 8.0 mph

Today
High -- | Low -- °F
--% Chance of Precip.
Yesterday
High -- | Low -- °F
Precip. -- in
6:54 AM 7:01 PM
Waning Crescent, 0% visible
Pressure 30.22 in
Visibility 10.0 miles
Clouds Clear
Heat Index 77 °F
Dew Point 54 °F
Humidity 50%
Rainfall 0.00 in
Snow Depth Not available.
UV 4 out of 12
Pollen 5.70 out of 12
Air Quality Not available.
Flu Activity Not available.
METAR KFYG 232035Z AUTO 09004KT 10SM CLR 23/08 A3022 RMK AO2

More Conditions Fewer Conditions

Pressure 30.22 in
Visibility 10.0 miles
Clouds Clear
Heat Index 77 °F
Dew Point 54 °F
Humidity 50%
Rainfall 0.00 in
Snow Depth Not available.
UV 4 out of 12
Pollen 5.70 out of 12
Air Quality Not available.
Flu Activity Not available.
METAR KFYG 232035Z AUTO 09004KT 10SM CLR 23/08 A3022 RMK AO2

More Conditions Fewer Conditions

10-Day Weather Forecast

Almanac

Astronomy

Sep. 23, 2014 Rise Set
Actual Time 6:54 AM CDT 7:01 PM CDT
Civil Twilight 6:28 AM CDT 7:27 PM CDT
Nautical Twilight 5:56 AM CDT 7:59 PM CDT
Astronomical Twilight 5:25 AM CDT 8:30 PM CDT
Moon 6:19 AM CDT 6:40 PM CDT
Length of Visible Light 12h 59m
Length of Day
12h 06m
Tomorrow will be 2m 31s shorter.
Waning Crescent, 0% of the Moon is Illuminated
Today
Waning Crescent
Sep 24
New
Oct 1
First Quarter
Oct 8
Full
Oct 15
Last Quarter

Today's Extremes

State Highs State Lows

Community

WunderPhotos

Upload Photos

1,755,793 photos uploaded!

WunderBlogs® & News

By Dr. Jeff Masters
Director of Meteorology, Weather Underground
By Kari Strenfel
Meteorologist, Weather Underground
By Christopher C. Burt
Weather Historian, Weather Underground
September 23, 2014
September 23, 2014
September 23, 2014

Nearby

Snow Depth

Station Depth Elevation
No new snow has been reported.

Earthquake Activity

City Distance Mag. Time & Date
No recent earthquake activity has been reported nearby.
Minimum magnitude displayed is 2.5.

Coastal Water Temperatures

Place Temperature
No Stations Reporting

Nearby Weather Stations